Home   Weather   USA   Telluride   Past weeks
Flag for USA

Past Weather in Telluride, Colorado, USA — Yesterday and Last 2 Weeks

Currently: 50 °F. Clear. (Weather station: Telluride Regional, USA). See more current weather

Past Weather in Telluride — Graph

°F

Telluride Temperature Yesterday

Maximum temperature yesterday: 79 °F (at 3:15 pm)
Minimum temperature yesterday: 50 °F (at 3:15 am)
Average temperature yesterday: 65 °F

High & Low Weather Summary for the Past Weeks

 TemperatureHumidityPressure
High79 °F (Jun 12, 3:15 pm)81% (Jun 1, 4:35 am)30.46 "Hg (Jun 1, 4:35 am)
Low37 °F (Jun 1, 3:55 am)7% (Jun 12, 11:55 am)30.18 "Hg (Jun 6, 6:55 pm)
Average60 °F28%30.32 "Hg
* Reported May 29 5:15 am — Jun 13 5:15 am, Telluride. Weather by CustomWeather, © 2021

Note: Actual official high and low records may vary slightly from our data, if they occured in-between our weather recording intervals... More about our weather records

Telluride Weather History for the Previous 24 Hours

Scroll right to see more
 ConditionsComfort  
Time TempWeatherWind HumidityBarometerVisibility
5:15 am
Sun, Jun 13
50 °FClear.6 mph22%30.46 "Hg10 mi
4:55 am50 °FClear.8 mph24%30.45 "Hg10 mi
4:35 am52 °FClear.7 mph20%30.45 "Hg10 mi
4:15 am52 °FClear.8 mph22%30.44 "Hg10 mi
3:55 am52 °FClear.7 mph20%30.44 "Hg10 mi
3:35 am52 °FClear.6 mph20%30.44 "Hg10 mi
3:15 am52 °FClear.7 mph22%30.44 "Hg10 mi
2:55 am52 °FClear.8 mph22%30.44 "Hg10 mi
2:35 am54 °FClear.7 mph19%30.43 "Hg10 mi
2:15 am52 °FClear.7 mph22%30.44 "Hg10 mi
1:55 am54 °FClear.6 mph21%30.44 "Hg10 mi
1:35 am54 °FClear.7 mph21%30.43 "Hg10 mi
1:15 am55 °FClear.6 mph19%30.44 "Hg10 mi
12:55 am55 °FClear.5 mph19%30.44 "Hg10 mi
12:35 am55 °FClear.5 mph19%30.44 "Hg10 mi
12:15 am55 °FClear.7 mph19%30.44 "Hg10 mi
11:55 pm
Sat, Jun 12
55 °FClear.9 mph19%30.44 "Hg10 mi
11:35 pm59 °FClear.6 mph16%30.45 "Hg10 mi
11:15 pm59 °FClear.7 mph16%30.45 "Hg10 mi
10:55 pm61 °FClear.7 mph16%30.45 "Hg10 mi
10:35 pm61 °FClear.9 mph16%30.45 "Hg10 mi
9:55 pm64 °FClear.7 mph14%30.43 "Hg10 mi
9:15 pm70 °FClear.3 mph8%30.42 "Hg10 mi
8:55 pm70 °FClear.No wind9%30.41 "Hg10 mi
8:35 pm72 °FClear.No wind8%30.40 "Hg10 mi
7:55 pm75 °FSunny.7 mph8%30.38 "Hg10 mi
7:35 pm77 °FSunny.8 mph8%30.38 "Hg10 mi
6:55 pm77 °FSunny.9 mph8%30.36 "Hg10 mi
6:15 pm79 °FSunny.12 mph8%30.36 "Hg10 mi
5:55 pm79 °FSunny.9 mph8%30.36 "Hg10 mi
5:35 pm79 °FSunny.5 mph7%30.37 "Hg10 mi
5:15 pm79 °FSunny.13 mph7%30.37 "Hg10 mi
4:55 pm79 °FSunny.9 mph8%30.37 "Hg10 mi
4:35 pm79 °FSunny.8 mph8%30.38 "Hg10 mi
4:15 pm79 °FSunny.5 mph8%30.38 "Hg10 mi
3:55 pm79 °FSunny.14 mph8%30.38 "Hg10 mi
3:35 pm79 °FSunny.9 mph8%30.38 "Hg10 mi
3:15 pm79 °FSunny.5 mph8%30.38 "Hg10 mi
2:55 pm77 °FSunny.8 mph9%30.38 "Hg10 mi
2:35 pm75 °FSunny.No wind11%30.38 "Hg10 mi
1:35 pm77 °FSunny.12 mph8%30.40 "Hg10 mi
1:15 pm77 °FSunny.8 mph8%30.40 "Hg10 mi
12:55 pm77 °FSunny.17 mph8%30.40 "Hg10 mi
12:35 pm77 °FSunny.5 mph7%30.40 "Hg10 mi
11:55 am75 °FSunny.6 mph7%30.42 "Hg10 mi
11:35 am73 °FSunny.3 mph9%30.42 "Hg10 mi
10:55 am72 °FSunny.No wind9%30.42 "Hg10 mi
10:35 am73 °FSunny.3 mph10%30.42 "Hg10 mi
10:15 am72 °FSunny.No wind10%30.42 "Hg10 mi
9:55 am72 °FSunny.3 mph10%30.43 "Hg10 mi
9:35 am68 °FSunny.No wind17%30.43 "Hg10 mi
9:15 am66 °FSunny.No wind18%30.43 "Hg10 mi
8:55 am63 °FSunny.No wind22%30.42 "Hg10 mi
8:35 am61 °FSunny.No wind23%30.42 "Hg10 mi
8:15 am59 °FSunny.3 mph21%30.42 "Hg10 mi
7:55 am55 °FSunny.6 mph24%30.42 "Hg10 mi
7:35 am55 °FSunny.7 mph23%30.41 "Hg10 mi
7:15 am52 °FSunny.9 mph24%30.41 "Hg10 mi
6:55 am50 °FSunny.3 mph28%30.41 "Hg10 mi
Weather by CustomWeather, © 2021

See weather overview